sensor_id;sensor_type;location;lat;lon;timestamp;P1;durP1;ratioP1;P2;durP2;ratioP2
24619;SDS011;12763;55.802;37.404;2023-08-30T00:01:00;21.83;;;13.45;;
24619;SDS011;12763;55.802;37.404;2023-08-30T00:03:26;21.48;;;13.57;;
24619;SDS011;12763;55.802;37.404;2023-08-30T00:05:52;20.73;;;12.80;;
24619;SDS011;12763;55.802;37.404;2023-08-30T00:08:18;22.38;;;14.15;;
24619;SDS011;12763;55.802;37.404;2023-08-30T00:10:47;21.17;;;13.70;;
24619;SDS011;12763;55.802;37.404;2023-08-30T00:13:14;21.25;;;13.60;;
24619;SDS011;12763;55.802;37.404;2023-08-30T00:15:41;18.58;;;13.18;;
24619;SDS011;12763;55.802;37.404;2023-08-30T00:18:07;21.92;;;12.98;;
24619;SDS011;12763;55.802;37.404;2023-08-30T00:20:33;21.75;;;13.43;;
24619;SDS011;12763;55.802;37.404;2023-08-30T00:23:00;25.45;;;15.27;;
24619;SDS011;12763;55.802;37.404;2023-08-30T00:25:26;22.25;;;13.27;;
24619;SDS011;12763;55.802;37.404;2023-08-30T00:27:52;23.65;;;14.32;;
24619;SDS011;12763;55.802;37.404;2023-08-30T00:30:19;26.35;;;13.98;;
24619;SDS011;12763;55.802;37.404;2023-08-30T00:32:45;21.55;;;13.55;;
24619;SDS011;12763;55.802;37.404;2023-08-30T00:35:11;22.50;;;14.30;;
24619;SDS011;12763;55.802;37.404;2023-08-30T00:37:37;24.67;;;14.50;;
24619;SDS011;12763;55.802;37.404;2023-08-30T00:40:04;24.75;;;14.18;;
24619;SDS011;12763;55.802;37.404;2023-08-30T00:42:32;22.92;;;14.48;;
24619;SDS011;12763;55.802;37.404;2023-08-30T00:44:58;22.55;;;13.93;;
24619;SDS011;12763;55.802;37.404;2023-08-30T00:47:25;21.55;;;12.32;;
24619;SDS011;12763;55.802;37.404;2023-08-30T00:49:51;23.80;;;12.65;;
24619;SDS011;12763;55.802;37.404;2023-08-30T00:52:17;20.70;;;12.00;;
24619;SDS011;12763;55.802;37.404;2023-08-30T00:54:44;20.13;;;12.63;;
24619;SDS011;12763;55.802;37.404;2023-08-30T00:57:11;20.45;;;12.70;;
24619;SDS011;12763;55.802;37.404;2023-08-30T00:59:38;20.15;;;12.13;;
24619;SDS011;12763;55.802;37.404;2023-08-30T01:02:05;21.17;;;12.40;;
24619;SDS011;12763;55.802;37.404;2023-08-30T01:04:34;19.42;;;11.63;;
24619;SDS011;12763;55.802;37.404;2023-08-30T01:07:00;19.52;;;12.48;;
24619;SDS011;12763;55.802;37.404;2023-08-30T01:09:27;18.45;;;11.75;;
24619;SDS011;12763;55.802;37.404;2023-08-30T01:12:00;21.15;;;12.43;;
24619;SDS011;12763;55.802;37.404;2023-08-30T01:17:18;18.77;;;12.00;;
24619;SDS011;12763;55.802;37.404;2023-08-30T01:19:56;20.25;;;11.68;;
24619;SDS011;12763;55.802;37.404;2023-08-30T01:22:43;24.10;;;12.50;;
24619;SDS011;12763;55.802;37.404;2023-08-30T01:27:40;19.48;;;10.88;;
24619;SDS011;12763;55.802;37.404;2023-08-30T01:30:07;16.80;;;9.90;;
24619;SDS011;12763;55.802;37.404;2023-08-30T01:32:36;14.93;;;9.70;;
24619;SDS011;12763;55.802;37.404;2023-08-30T01:35:05;16.13;;;10.98;;
24619;SDS011;12763;55.802;37.404;2023-08-30T01:37:33;17.67;;;10.88;;
24619;SDS011;12763;55.802;37.404;2023-08-30T01:40:03;15.13;;;9.55;;
24619;SDS011;12763;55.802;37.404;2023-08-30T01:42:32;17.23;;;11.05;;
24619;SDS011;12763;55.802;37.404;2023-08-30T01:45:01;14.85;;;9.73;;
24619;SDS011;12763;55.802;37.404;2023-08-30T01:47:29;14.18;;;9.55;;
24619;SDS011;12763;55.802;37.404;2023-08-30T01:49:56;13.52;;;9.50;;
24619;SDS011;12763;55.802;37.404;2023-08-30T01:52:24;15.85;;;10.50;;
24619;SDS011;12763;55.802;37.404;2023-08-30T01:54:51;17.35;;;9.75;;
24619;SDS011;12763;55.802;37.404;2023-08-30T01:57:19;21.48;;;9.85;;
24619;SDS011;12763;55.802;37.404;2023-08-30T01:59:45;14.20;;;8.68;;
24619;SDS011;12763;55.802;37.404;2023-08-30T02:02:11;14.32;;;9.27;;
24619;SDS011;12763;55.802;37.404;2023-08-30T02:04:38;13.57;;;8.80;;
24619;SDS011;12763;55.802;37.404;2023-08-30T02:07:11;14.82;;;9.32;;
24619;SDS011;12763;55.802;37.404;2023-08-30T02:09:56;14.75;;;9.45;;
24619;SDS011;12763;55.802;37.404;2023-08-30T02:12:24;18.73;;;10.40;;
24619;SDS011;12763;55.802;37.404;2023-08-30T02:15:07;19.77;;;10.57;;
24619;SDS011;12763;55.802;37.404;2023-08-30T02:17:34;15.43;;;9.65;;
24619;SDS011;12763;55.802;37.404;2023-08-30T02:20:03;13.85;;;9.18;;
24619;SDS011;12763;55.802;37.404;2023-08-30T02:22:32;17.02;;;9.82;;
24619;SDS011;12763;55.802;37.404;2023-08-30T02:24:59;16.92;;;10.00;;
24619;SDS011;12763;55.802;37.404;2023-08-30T02:27:31;16.92;;;9.30;;
24619;SDS011;12763;55.802;37.404;2023-08-30T02:29:59;15.48;;;9.18;;
24619;SDS011;12763;55.802;37.404;2023-08-30T02:32:25;15.23;;;9.15;;
24619;SDS011;12763;55.802;37.404;2023-08-30T02:34:52;14.02;;;9.02;;
24619;SDS011;12763;55.802;37.404;2023-08-30T02:37:20;14.95;;;9.20;;
24619;SDS011;12763;55.802;37.404;2023-08-30T02:39:49;15.02;;;9.68;;
24619;SDS011;12763;55.802;37.404;2023-08-30T02:42:15;14.15;;;9.20;;
24619;SDS011;12763;55.802;37.404;2023-08-30T02:44:41;15.60;;;10.05;;
24619;SDS011;12763;55.802;37.404;2023-08-30T02:47:07;14.35;;;9.15;;
24619;SDS011;12763;55.802;37.404;2023-08-30T02:49:34;18.15;;;10.27;;
24619;SDS011;12763;55.802;37.404;2023-08-30T02:52:00;20.92;;;13.25;;
24619;SDS011;12763;55.802;37.404;2023-08-30T02:54:27;17.25;;;9.40;;
24619;SDS011;12763;55.802;37.404;2023-08-30T02:56:53;13.75;;;9.27;;
24619;SDS011;12763;55.802;37.404;2023-08-30T02:59:19;12.63;;;8.65;;
24619;SDS011;12763;55.802;37.404;2023-08-30T03:01:45;13.60;;;8.80;;
24619;SDS011;12763;55.802;37.404;2023-08-30T03:04:14;12.85;;;7.65;;
24619;SDS011;12763;55.802;37.404;2023-08-30T03:06:40;12.90;;;7.65;;
24619;SDS011;12763;55.802;37.404;2023-08-30T03:09:07;13.15;;;8.55;;
24619;SDS011;12763;55.802;37.404;2023-08-30T03:11:36;15.07;;;8.80;;
24619;SDS011;12763;55.802;37.404;2023-08-30T03:14:02;14.60;;;8.32;;
24619;SDS011;12763;55.802;37.404;2023-08-30T03:16:29;12.20;;;8.10;;
24619;SDS011;12763;55.802;37.404;2023-08-30T03:18:56;13.35;;;8.07;;
24619;SDS011;12763;55.802;37.404;2023-08-30T03:21:21;14.13;;;7.85;;
24619;SDS011;12763;55.802;37.404;2023-08-30T03:23:47;15.02;;;8.43;;
24619;SDS011;12763;55.802;37.404;2023-08-30T03:26:15;13.32;;;8.45;;
24619;SDS011;12763;55.802;37.404;2023-08-30T03:28:42;16.15;;;8.93;;
24619;SDS011;12763;55.802;37.404;2023-08-30T03:31:16;19.30;;;9.82;;
24619;SDS011;12763;55.802;37.404;2023-08-30T03:33:46;15.30;;;8.35;;
24619;SDS011;12763;55.802;37.404;2023-08-30T03:36:15;15.52;;;8.63;;
24619;SDS011;12763;55.802;37.404;2023-08-30T03:38:44;15.55;;;9.55;;
24619;SDS011;12763;55.802;37.404;2023-08-30T03:41:11;13.38;;;8.93;;
24619;SDS011;12763;55.802;37.404;2023-08-30T03:43:38;16.17;;;9.27;;
24619;SDS011;12763;55.802;37.404;2023-08-30T03:46:06;18.35;;;8.75;;
24619;SDS011;12763;55.802;37.404;2023-08-30T03:48:32;14.35;;;8.95;;
24619;SDS011;12763;55.802;37.404;2023-08-30T03:50:59;19.20;;;8.50;;
24619;SDS011;12763;55.802;37.404;2023-08-30T03:53:26;12.27;;;8.00;;
24619;SDS011;12763;55.802;37.404;2023-08-30T03:55:53;15.52;;;7.55;;
24619;SDS011;12763;55.802;37.404;2023-08-30T03:58:19;15.63;;;8.18;;
24619;SDS011;12763;55.802;37.404;2023-08-30T04:00:46;13.80;;;8.95;;
24619;SDS011;12763;55.802;37.404;2023-08-30T04:03:13;14.30;;;8.65;;
24619;SDS011;12763;55.802;37.404;2023-08-30T04:05:41;11.95;;;7.57;;
24619;SDS011;12763;55.802;37.404;2023-08-30T04:08:08;14.88;;;8.45;;
24619;SDS011;12763;55.802;37.404;2023-08-30T04:10:38;13.95;;;7.50;;
24619;SDS011;12763;55.802;37.404;2023-08-30T04:13:06;12.20;;;7.22;;
24619;SDS011;12763;55.802;37.404;2023-08-30T04:15:34;11.95;;;7.53;;
24619;SDS011;12763;55.802;37.404;2023-08-30T04:18:01;11.63;;;7.75;;
24619;SDS011;12763;55.802;37.404;2023-08-30T04:20:28;11.65;;;7.18;;
24619;SDS011;12763;55.802;37.404;2023-08-30T04:22:54;12.57;;;7.93;;
24619;SDS011;12763;55.802;37.404;2023-08-30T04:25:23;11.15;;;6.60;;
24619;SDS011;12763;55.802;37.404;2023-08-30T04:27:49;11.60;;;7.45;;
24619;SDS011;12763;55.802;37.404;2023-08-30T04:30:16;11.88;;;7.13;;
24619;SDS011;12763;55.802;37.404;2023-08-30T04:32:42;10.95;;;6.07;;
24619;SDS011;12763;55.802;37.404;2023-08-30T04:35:08;13.05;;;7.15;;
24619;SDS011;12763;55.802;37.404;2023-08-30T04:37:35;9.82;;;6.60;;
24619;SDS011;12763;55.802;37.404;2023-08-30T04:40:07;11.55;;;6.80;;
24619;SDS011;12763;55.802;37.404;2023-08-30T04:42:36;11.18;;;7.05;;
24619;SDS011;12763;55.802;37.404;2023-08-30T04:45:03;9.40;;;6.28;;
24619;SDS011;12763;55.802;37.404;2023-08-30T04:47:33;9.95;;;5.93;;
24619;SDS011;12763;55.802;37.404;2023-08-30T04:50:00;9.65;;;6.45;;
24619;SDS011;12763;55.802;37.404;2023-08-30T04:52:32;9.27;;;6.40;;
24619;SDS011;12763;55.802;37.404;2023-08-30T04:54:58;12.57;;;6.40;;
24619;SDS011;12763;55.802;37.404;2023-08-30T04:57:27;9.93;;;6.68;;
24619;SDS011;12763;55.802;37.404;2023-08-30T04:59:54;9.98;;;6.82;;
24619;SDS011;12763;55.802;37.404;2023-08-30T05:02:21;13.90;;;7.13;;
24619;SDS011;12763;55.802;37.404;2023-08-30T05:04:58;14.30;;;6.60;;
24619;SDS011;12763;55.802;37.404;2023-08-30T05:07:24;10.93;;;6.97;;
24619;SDS011;12763;55.802;37.404;2023-08-30T05:09:50;11.88;;;6.93;;
24619;SDS011;12763;55.802;37.404;2023-08-30T05:12:16;16.17;;;7.10;;
24619;SDS011;12763;55.802;37.404;2023-08-30T05:14:41;10.18;;;6.80;;
24619;SDS011;12763;55.802;37.404;2023-08-30T05:17:07;11.82;;;6.03;;
24619;SDS011;12763;55.802;37.404;2023-08-30T05:19:33;10.40;;;5.68;;
24619;SDS011;12763;55.802;37.404;2023-08-30T05:21:59;10.38;;;6.50;;
24619;SDS011;12763;55.802;37.404;2023-08-30T05:24:25;11.85;;;6.63;;
24619;SDS011;12763;55.802;37.404;2023-08-30T05:26:53;14.57;;;6.25;;
24619;SDS011;12763;55.802;37.404;2023-08-30T05:29:19;11.85;;;6.57;;
24619;SDS011;12763;55.802;37.404;2023-08-30T05:31:44;13.82;;;7.20;;
24619;SDS011;12763;55.802;37.404;2023-08-30T05:34:32;9.85;;;6.47;;
24619;SDS011;12763;55.802;37.404;2023-08-30T05:37:27;8.65;;;6.20;;
24619;SDS011;12763;55.802;37.404;2023-08-30T05:40:01;10.47;;;6.00;;
24619;SDS011;12763;55.802;37.404;2023-08-30T05:42:29;10.63;;;6.53;;
24619;SDS011;12763;55.802;37.404;2023-08-30T05:44:56;12.75;;;6.20;;
24619;SDS011;12763;55.802;37.404;2023-08-30T05:47:22;14.57;;;7.10;;
24619;SDS011;12763;55.802;37.404;2023-08-30T05:49:48;9.40;;;6.55;;
24619;SDS011;12763;55.802;37.404;2023-08-30T05:52:14;11.07;;;6.40;;
24619;SDS011;12763;55.802;37.404;2023-08-30T05:54:41;9.10;;;6.22;;
24619;SDS011;12763;55.802;37.404;2023-08-30T05:57:09;12.00;;;6.50;;
24619;SDS011;12763;55.802;37.404;2023-08-30T05:59:35;12.80;;;6.63;;
24619;SDS011;12763;55.802;37.404;2023-08-30T06:02:01;9.93;;;7.07;;
24619;SDS011;12763;55.802;37.404;2023-08-30T06:04:27;12.57;;;6.80;;
24619;SDS011;12763;55.802;37.404;2023-08-30T06:06:53;14.13;;;6.85;;
24619;SDS011;12763;55.802;37.404;2023-08-30T06:09:19;12.18;;;7.10;;
24619;SDS011;12763;55.802;37.404;2023-08-30T06:11:45;11.85;;;6.15;;
24619;SDS011;12763;55.802;37.404;2023-08-30T06:14:11;9.70;;;6.40;;
24619;SDS011;12763;55.802;37.404;2023-08-30T06:16:37;12.20;;;6.20;;
24619;SDS011;12763;55.802;37.404;2023-08-30T06:19:03;11.65;;;5.85;;
24619;SDS011;12763;55.802;37.404;2023-08-30T06:21:29;10.50;;;6.53;;
24619;SDS011;12763;55.802;37.404;2023-08-30T06:23:55;12.95;;;5.75;;
24619;SDS011;12763;55.802;37.404;2023-08-30T06:26:20;10.90;;;6.32;;
24619;SDS011;12763;55.802;37.404;2023-08-30T06:28:47;9.02;;;5.63;;
24619;SDS011;12763;55.802;37.404;2023-08-30T06:31:13;8.73;;;4.50;;
24619;SDS011;12763;55.802;37.404;2023-08-30T06:33:39;8.05;;;4.35;;
24619;SDS011;12763;55.802;37.404;2023-08-30T06:36:05;7.03;;;4.20;;
24619;SDS011;12763;55.802;37.404;2023-08-30T06:38:31;5.40;;;4.13;;
24619;SDS011;12763;55.802;37.404;2023-08-30T06:41:00;7.55;;;4.57;;
24619;SDS011;12763;55.802;37.404;2023-08-30T06:43:26;6.25;;;4.00;;
24619;SDS011;12763;55.802;37.404;2023-08-30T06:45:52;7.55;;;4.57;;
24619;SDS011;12763;55.802;37.404;2023-08-30T06:48:19;9.27;;;5.03;;
24619;SDS011;12763;55.802;37.404;2023-08-30T06:50:45;12.13;;;4.82;;
24619;SDS011;12763;55.802;37.404;2023-08-30T06:53:11;9.88;;;4.20;;
24619;SDS011;12763;55.802;37.404;2023-08-30T06:55:36;10.50;;;5.97;;
24619;SDS011;12763;55.802;37.404;2023-08-30T06:58:03;8.13;;;4.55;;
24619;SDS011;12763;55.802;37.404;2023-08-30T07:00:29;17.90;;;6.10;;
24619;SDS011;12763;55.802;37.404;2023-08-30T07:02:55;16.83;;;5.35;;
24619;SDS011;12763;55.802;37.404;2023-08-30T07:05:22;8.50;;;4.97;;
24619;SDS011;12763;55.802;37.404;2023-08-30T07:07:48;15.70;;;5.15;;
24619;SDS011;12763;55.802;37.404;2023-08-30T07:10:14;12.23;;;4.78;;
24619;SDS011;12763;55.802;37.404;2023-08-30T07:12:40;6.50;;;4.57;;
24619;SDS011;12763;55.802;37.404;2023-08-30T07:15:06;5.50;;;4.40;;
24619;SDS011;12763;55.802;37.404;2023-08-30T07:17:33;7.70;;;4.72;;
24619;SDS011;12763;55.802;37.404;2023-08-30T07:19:59;5.85;;;4.28;;
24619;SDS011;12763;55.802;37.404;2023-08-30T07:22:24;7.82;;;4.60;;
24619;SDS011;12763;55.802;37.404;2023-08-30T07:24:50;10.18;;;4.95;;
24619;SDS011;12763;55.802;37.404;2023-08-30T07:27:16;7.53;;;4.90;;
24619;SDS011;12763;55.802;37.404;2023-08-30T07:29:42;5.13;;;4.10;;
24619;SDS011;12763;55.802;37.404;2023-08-30T07:32:09;9.95;;;4.63;;
24619;SDS011;12763;55.802;37.404;2023-08-30T07:34:35;11.48;;;4.95;;
24619;SDS011;12763;55.802;37.404;2023-08-30T07:37:01;5.88;;;3.90;;
24619;SDS011;12763;55.802;37.404;2023-08-30T07:39:27;5.63;;;4.15;;
24619;SDS011;12763;55.802;37.404;2023-08-30T07:41:53;6.40;;;4.07;;
24619;SDS011;12763;55.802;37.404;2023-08-30T07:44:19;8.18;;;4.45;;
24619;SDS011;12763;55.802;37.404;2023-08-30T07:46:46;9.05;;;4.47;;
24619;SDS011;12763;55.802;37.404;2023-08-30T07:49:12;12.82;;;4.93;;
24619;SDS011;12763;55.802;37.404;2023-08-30T07:51:38;9.48;;;4.40;;
24619;SDS011;12763;55.802;37.404;2023-08-30T07:54:03;7.95;;;4.65;;
24619;SDS011;12763;55.802;37.404;2023-08-30T07:56:30;9.07;;;4.22;;
24619;SDS011;12763;55.802;37.404;2023-08-30T07:58:56;13.35;;;4.95;;
24619;SDS011;12763;55.802;37.404;2023-08-30T08:01:22;10.10;;;4.28;;
24619;SDS011;12763;55.802;37.404;2023-08-30T08:03:48;8.32;;;4.60;;
24619;SDS011;12763;55.802;37.404;2023-08-30T08:06:14;6.07;;;4.05;;
24619;SDS011;12763;55.802;37.404;2023-08-30T08:08:40;5.55;;;3.83;;
24619;SDS011;12763;55.802;37.404;2023-08-30T08:11:06;7.95;;;3.97;;
24619;SDS011;12763;55.802;37.404;2023-08-30T08:13:31;5.30;;;3.35;;
24619;SDS011;12763;55.802;37.404;2023-08-30T08:15:57;6.97;;;4.15;;
24619;SDS011;12763;55.802;37.404;2023-08-30T08:18:23;6.82;;;4.20;;
24619;SDS011;12763;55.802;37.404;2023-08-30T08:20:49;6.65;;;4.07;;
24619;SDS011;12763;55.802;37.404;2023-08-30T08:23:15;5.15;;;3.78;;
24619;SDS011;12763;55.802;37.404;2023-08-30T08:25:41;4.43;;;3.42;;
24619;SDS011;12763;55.802;37.404;2023-08-30T08:28:07;5.38;;;3.67;;
24619;SDS011;12763;55.802;37.404;2023-08-30T08:30:33;6.68;;;4.07;;
24619;SDS011;12763;55.802;37.404;2023-08-30T08:33:00;6.43;;;3.80;;
24619;SDS011;12763;55.802;37.404;2023-08-30T08:35:27;7.53;;;3.60;;
24619;SDS011;12763;55.802;37.404;2023-08-30T08:37:53;10.45;;;3.88;;
24619;SDS011;12763;55.802;37.404;2023-08-30T08:40:19;9.18;;;3.90;;
24619;SDS011;12763;55.802;37.404;2023-08-30T08:42:45;5.18;;;3.42;;
24619;SDS011;12763;55.802;37.404;2023-08-30T08:45:16;7.75;;;3.63;;
24619;SDS011;12763;55.802;37.404;2023-08-30T08:47:45;7.50;;;4.07;;
24619;SDS011;12763;55.802;37.404;2023-08-30T08:50:11;6.85;;;4.07;;
24619;SDS011;12763;55.802;37.404;2023-08-30T08:52:37;6.15;;;3.45;;
24619;SDS011;12763;55.802;37.404;2023-08-30T08:55:03;9.10;;;3.80;;
24619;SDS011;12763;55.802;37.404;2023-08-30T08:57:30;6.63;;;3.67;;
24619;SDS011;12763;55.802;37.404;2023-08-30T08:59:59;6.85;;;3.28;;
24619;SDS011;12763;55.802;37.404;2023-08-30T09:02:25;6.13;;;3.53;;
24619;SDS011;12763;55.802;37.404;2023-08-30T09:04:52;7.05;;;3.53;;
24619;SDS011;12763;55.802;37.404;2023-08-30T09:07:18;17.35;;;4.68;;
24619;SDS011;12763;55.802;37.404;2023-08-30T09:09:46;8.80;;;3.85;;
24619;SDS011;12763;55.802;37.404;2023-08-30T09:12:12;5.82;;;3.33;;
24619;SDS011;12763;55.802;37.404;2023-08-30T09:14:38;9.02;;;3.67;;
24619;SDS011;12763;55.802;37.404;2023-08-30T09:17:04;5.43;;;3.25;;
24619;SDS011;12763;55.802;37.404;2023-08-30T09:19:30;5.38;;;3.03;;
24619;SDS011;12763;55.802;37.404;2023-08-30T09:21:57;4.63;;;3.30;;
24619;SDS011;12763;55.802;37.404;2023-08-30T09:24:23;8.80;;;3.42;;
24619;SDS011;12763;55.802;37.404;2023-08-30T09:26:51;7.85;;;3.45;;
24619;SDS011;12763;55.802;37.404;2023-08-30T09:29:18;10.40;;;3.97;;
24619;SDS011;12763;55.802;37.404;2023-08-30T09:31:45;7.32;;;3.38;;
24619;SDS011;12763;55.802;37.404;2023-08-30T09:34:11;4.18;;;2.95;;
24619;SDS011;12763;55.802;37.404;2023-08-30T09:36:38;6.38;;;3.35;;
24619;SDS011;12763;55.802;37.404;2023-08-30T09:41:48;4.80;;;3.20;;
24619;SDS011;12763;55.802;37.404;2023-08-30T09:46:49;6.68;;;3.10;;
24619;SDS011;12763;55.802;37.404;2023-08-30T09:49:20;5.85;;;3.10;;
24619;SDS011;12763;55.802;37.404;2023-08-30T09:51:50;6.38;;;3.15;;
24619;SDS011;12763;55.802;37.404;2023-08-30T09:54:19;7.07;;;3.40;;
24619;SDS011;12763;55.802;37.404;2023-08-30T09:56:45;6.28;;;3.25;;
24619;SDS011;12763;55.802;37.404;2023-08-30T09:59:13;5.40;;;3.08;;
24619;SDS011;12763;55.802;37.404;2023-08-30T10:01:42;6.07;;;2.92;;
24619;SDS011;12763;55.802;37.404;2023-08-30T10:04:10;5.20;;;2.60;;
24619;SDS011;12763;55.802;37.404;2023-08-30T10:06:37;10.88;;;3.28;;
24619;SDS011;12763;55.802;37.404;2023-08-30T10:09:04;8.65;;;3.03;;
24619;SDS011;12763;55.802;37.404;2023-08-30T10:11:36;8.10;;;2.92;;
24619;SDS011;12763;55.802;37.404;2023-08-30T10:14:03;5.45;;;3.40;;
24619;SDS011;12763;55.802;37.404;2023-08-30T10:16:52;6.50;;;3.70;;
24619;SDS011;12763;55.802;37.404;2023-08-30T10:19:26;5.78;;;3.17;;
24619;SDS011;12763;55.802;37.404;2023-08-30T10:22:02;4.70;;;3.25;;
24619;SDS011;12763;55.802;37.404;2023-08-30T10:24:51;7.25;;;3.63;;
24619;SDS011;12763;55.802;37.404;2023-08-30T10:27:19;5.10;;;3.60;;
24619;SDS011;12763;55.802;37.404;2023-08-30T10:29:48;4.93;;;3.47;;
24619;SDS011;12763;55.802;37.404;2023-08-30T10:32:21;6.78;;;3.40;;
24619;SDS011;12763;55.802;37.404;2023-08-30T10:34:48;10.82;;;3.90;;
24619;SDS011;12763;55.802;37.404;2023-08-30T10:37:15;5.78;;;3.35;;
24619;SDS011;12763;55.802;37.404;2023-08-30T10:39:41;8.45;;;3.47;;
24619;SDS011;12763;55.802;37.404;2023-08-30T10:47:30;4.05;;;3.00;;
24619;SDS011;12763;55.802;37.404;2023-08-30T10:49:58;6.63;;;3.28;;
24619;SDS011;12763;55.802;37.404;2023-08-30T10:52:26;6.80;;;3.08;;
24619;SDS011;12763;55.802;37.404;2023-08-30T10:55:03;7.07;;;3.13;;
24619;SDS011;12763;55.802;37.404;2023-08-30T10:57:31;7.18;;;2.88;;
24619;SDS011;12763;55.802;37.404;2023-08-30T11:00:08;4.95;;;2.63;;
24619;SDS011;12763;55.802;37.404;2023-08-30T11:02:37;4.07;;;2.83;;
24619;SDS011;12763;55.802;37.404;2023-08-30T11:05:05;6.22;;;3.42;;
24619;SDS011;12763;55.802;37.404;2023-08-30T11:07:32;4.20;;;3.10;;
24619;SDS011;12763;55.802;37.404;2023-08-30T11:09:58;10.65;;;2.95;;
24619;SDS011;12763;55.802;37.404;2023-08-30T11:12:24;4.75;;;2.67;;
24619;SDS011;12763;55.802;37.404;2023-08-30T11:14:55;6.13;;;2.90;;
24619;SDS011;12763;55.802;37.404;2023-08-30T11:17:22;7.03;;;3.15;;
24619;SDS011;12763;55.802;37.404;2023-08-30T11:19:51;3.03;;;2.38;;
24619;SDS011;12763;55.802;37.404;2023-08-30T11:22:23;5.50;;;2.67;;
24619;SDS011;12763;55.802;37.404;2023-08-30T11:24:49;13.18;;;3.17;;
24619;SDS011;12763;55.802;37.404;2023-08-30T11:27:16;6.60;;;2.83;;
24619;SDS011;12763;55.802;37.404;2023-08-30T11:29:43;5.43;;;3.10;;
24619;SDS011;12763;55.802;37.404;2023-08-30T11:32:09;5.35;;;2.63;;
24619;SDS011;12763;55.802;37.404;2023-08-30T11:34:35;3.70;;;2.45;;
24619;SDS011;12763;55.802;37.404;2023-08-30T11:37:01;2.72;;;2.40;;
24619;SDS011;12763;55.802;37.404;2023-08-30T11:39:27;4.53;;;2.60;;
24619;SDS011;12763;55.802;37.404;2023-08-30T11:41:54;2.63;;;2.42;;
24619;SDS011;12763;55.802;37.404;2023-08-30T11:44:22;3.10;;;2.63;;
24619;SDS011;12763;55.802;37.404;2023-08-30T11:46:56;4.00;;;2.83;;
24619;SDS011;12763;55.802;37.404;2023-08-30T11:49:23;5.80;;;2.67;;
24619;SDS011;12763;55.802;37.404;2023-08-30T11:51:49;2.53;;;2.28;;
24619;SDS011;12763;55.802;37.404;2023-08-30T11:54:19;3.70;;;2.63;;
24619;SDS011;12763;55.802;37.404;2023-08-30T11:56:46;4.28;;;2.60;;
24619;SDS011;12763;55.802;37.404;2023-08-30T11:59:19;5.47;;;3.05;;
24619;SDS011;12763;55.802;37.404;2023-08-30T12:01:46;6.53;;;3.93;;
24619;SDS011;12763;55.802;37.404;2023-08-30T12:04:13;5.65;;;2.70;;
24619;SDS011;12763;55.802;37.404;2023-08-30T12:06:39;4.25;;;3.17;;
24619;SDS011;12763;55.802;37.404;2023-08-30T12:09:05;3.10;;;2.80;;
24619;SDS011;12763;55.802;37.404;2023-08-30T12:11:35;4.40;;;2.42;;
24619;SDS011;12763;55.802;37.404;2023-08-30T12:14:03;3.88;;;2.90;;
24619;SDS011;12763;55.802;37.404;2023-08-30T12:16:30;3.13;;;2.50;;
24619;SDS011;12763;55.802;37.404;2023-08-30T12:19:06;4.30;;;2.95;;
24619;SDS011;12763;55.802;37.404;2023-08-30T12:21:38;8.07;;;2.78;;
24619;SDS011;12763;55.802;37.404;2023-08-30T12:24:06;4.93;;;2.40;;
24619;SDS011;12763;55.802;37.404;2023-08-30T12:26:32;4.07;;;3.05;;
24619;SDS011;12763;55.802;37.404;2023-08-30T12:28:58;3.58;;;2.63;;
24619;SDS011;12763;55.802;37.404;2023-08-30T12:31:24;7.47;;;2.65;;
24619;SDS011;12763;55.802;37.404;2023-08-30T12:33:50;5.10;;;3.47;;
24619;SDS011;12763;55.802;37.404;2023-08-30T12:36:16;5.22;;;3.50;;
24619;SDS011;12763;55.802;37.404;2023-08-30T12:38:41;6.85;;;3.33;;
24619;SDS011;12763;55.802;37.404;2023-08-30T12:41:07;8.02;;;2.97;;
24619;SDS011;12763;55.802;37.404;2023-08-30T12:43:33;8.30;;;3.00;;
24619;SDS011;12763;55.802;37.404;2023-08-30T12:45:59;9.02;;;3.35;;
24619;SDS011;12763;55.802;37.404;2023-08-30T12:48:25;6.53;;;2.88;;
24619;SDS011;12763;55.802;37.404;2023-08-30T12:50:51;3.70;;;2.60;;
24619;SDS011;12763;55.802;37.404;2023-08-30T12:53:17;5.88;;;3.42;;
24619;SDS011;12763;55.802;37.404;2023-08-30T12:55:43;6.55;;;3.40;;
24619;SDS011;12763;55.802;37.404;2023-08-30T12:58:09;7.97;;;3.30;;
24619;SDS011;12763;55.802;37.404;2023-08-30T13:00:37;6.35;;;3.20;;
24619;SDS011;12763;55.802;37.404;2023-08-30T13:03:03;4.20;;;3.10;;
24619;SDS011;12763;55.802;37.404;2023-08-30T13:05:29;4.38;;;2.90;;
24619;SDS011;12763;55.802;37.404;2023-08-30T13:07:59;5.10;;;3.03;;
24619;SDS011;12763;55.802;37.404;2023-08-30T13:10:25;4.15;;;2.60;;
24619;SDS011;12763;55.802;37.404;2023-08-30T13:12:51;6.93;;;2.30;;
24619;SDS011;12763;55.802;37.404;2023-08-30T13:15:17;12.55;;;2.83;;
24619;SDS011;12763;55.802;37.404;2023-08-30T13:17:43;6.00;;;2.70;;
24619;SDS011;12763;55.802;37.404;2023-08-30T13:20:10;5.57;;;2.67;;
24619;SDS011;12763;55.802;37.404;2023-08-30T13:22:36;9.65;;;3.05;;
24619;SDS011;12763;55.802;37.404;2023-08-30T13:25:03;8.52;;;3.53;;
24619;SDS011;12763;55.802;37.404;2023-08-30T13:27:31;6.63;;;2.83;;
24619;SDS011;12763;55.802;37.404;2023-08-30T13:29:57;5.10;;;2.55;;
24619;SDS011;12763;55.802;37.404;2023-08-30T13:32:23;6.68;;;2.78;;
24619;SDS011;12763;55.802;37.404;2023-08-30T13:34:49;9.02;;;2.92;;
24619;SDS011;12763;55.802;37.404;2023-08-30T13:37:17;4.45;;;2.58;;
24619;SDS011;12763;55.802;37.404;2023-08-30T13:39:43;6.13;;;2.92;;
24619;SDS011;12763;55.802;37.404;2023-08-30T13:42:09;4.07;;;2.85;;
24619;SDS011;12763;55.802;37.404;2023-08-30T13:44:36;3.00;;;2.38;;
24619;SDS011;12763;55.802;37.404;2023-08-30T13:47:06;5.72;;;2.95;;
24619;SDS011;12763;55.802;37.404;2023-08-30T13:49:32;4.82;;;2.78;;
24619;SDS011;12763;55.802;37.404;2023-08-30T13:51:58;7.80;;;2.75;;
24619;SDS011;12763;55.802;37.404;2023-08-30T13:54:24;7.65;;;2.83;;
24619;SDS011;12763;55.802;37.404;2023-08-30T13:56:51;6.43;;;2.60;;
24619;SDS011;12763;55.802;37.404;2023-08-30T13:59:17;6.43;;;2.55;;
24619;SDS011;12763;55.802;37.404;2023-08-30T14:01:43;4.03;;;2.40;;
24619;SDS011;12763;55.802;37.404;2023-08-30T14:04:09;4.15;;;2.67;;
24619;SDS011;12763;55.802;37.404;2023-08-30T14:06:35;7.50;;;2.53;;
24619;SDS011;12763;55.802;37.404;2023-08-30T14:09:01;10.68;;;3.40;;
24619;SDS011;12763;55.802;37.404;2023-08-30T14:11:27;7.95;;;3.13;;
24619;SDS011;12763;55.802;37.404;2023-08-30T14:13:53;15.35;;;3.08;;
24619;SDS011;12763;55.802;37.404;2023-08-30T14:16:20;7.63;;;2.53;;
24619;SDS011;12763;55.802;37.404;2023-08-30T14:18:46;4.47;;;2.40;;
24619;SDS011;12763;55.802;37.404;2023-08-30T14:21:11;6.30;;;2.38;;
24619;SDS011;12763;55.802;37.404;2023-08-30T14:23:38;7.30;;;2.65;;
24619;SDS011;12763;55.802;37.404;2023-08-30T14:26:05;7.18;;;2.65;;
24619;SDS011;12763;55.802;37.404;2023-08-30T14:28:39;11.57;;;3.33;;
24619;SDS011;12763;55.802;37.404;2023-08-30T14:31:08;3.67;;;2.85;;
24619;SDS011;12763;55.802;37.404;2023-08-30T14:33:35;4.88;;;2.72;;
24619;SDS011;12763;55.802;37.404;2023-08-30T14:36:02;8.73;;;3.25;;
24619;SDS011;12763;55.802;37.404;2023-08-30T14:38:29;6.55;;;3.10;;
24619;SDS011;12763;55.802;37.404;2023-08-30T14:40:56;5.38;;;3.22;;
24619;SDS011;12763;55.802;37.404;2023-08-30T14:43:23;8.65;;;4.65;;